sensor_id;sensor_type;location;lat;lon;timestamp;P1;durP1;ratioP1;P2;durP2;ratioP2
21032;SDS011;10675;47.976;7.824;2022-12-29T00:01:23;1.10;;;1.00;;
21032;SDS011;10675;47.976;7.824;2022-12-29T00:03:48;1.43;;;0.80;;
21032;SDS011;10675;47.976;7.824;2022-12-29T00:06:14;1.97;;;0.80;;
21032;SDS011;10675;47.976;7.824;2022-12-29T00:08:39;1.60;;;0.70;;
21032;SDS011;10675;47.976;7.824;2022-12-29T00:11:06;0.60;;;0.60;;
21032;SDS011;10675;47.976;7.824;2022-12-29T00:13:39;4.27;;;0.90;;
21032;SDS011;10675;47.976;7.824;2022-12-29T00:16:23;1.60;;;0.60;;
21032;SDS011;10675;47.976;7.824;2022-12-29T00:18:49;0.33;;;0.33;;
21032;SDS011;10675;47.976;7.824;2022-12-29T00:21:16;0.70;;;0.57;;
21032;SDS011;10675;47.976;7.824;2022-12-29T00:24:01;1.33;;;0.73;;
21032;SDS011;10675;47.976;7.824;2022-12-29T00:26:33;2.50;;;0.90;;
21032;SDS011;10675;47.976;7.824;2022-12-29T00:29:17;1.13;;;0.50;;
21032;SDS011;10675;47.976;7.824;2022-12-29T00:32:01;1.23;;;0.60;;
21032;SDS011;10675;47.976;7.824;2022-12-29T00:34:45;1.13;;;0.60;;
21032;SDS011;10675;47.976;7.824;2022-12-29T00:37:29;1.30;;;0.63;;
21032;SDS011;10675;47.976;7.824;2022-12-29T00:40:14;0.77;;;0.53;;
21032;SDS011;10675;47.976;7.824;2022-12-29T00:42:58;1.27;;;0.60;;
21032;SDS011;10675;47.976;7.824;2022-12-29T00:45:42;1.97;;;0.70;;
21032;SDS011;10675;47.976;7.824;2022-12-29T00:48:07;2.27;;;0.93;;
21032;SDS011;10675;47.976;7.824;2022-12-29T00:50:33;0.70;;;0.70;;
21032;SDS011;10675;47.976;7.824;2022-12-29T00:52:58;2.63;;;0.70;;
21032;SDS011;10675;47.976;7.824;2022-12-29T00:55:24;2.73;;;0.70;;
21032;SDS011;10675;47.976;7.824;2022-12-29T00:57:49;1.30;;;0.60;;
21032;SDS011;10675;47.976;7.824;2022-12-29T01:00:15;1.13;;;0.80;;
21032;SDS011;10675;47.976;7.824;2022-12-29T01:02:40;2.00;;;0.70;;
21032;SDS011;10675;47.976;7.824;2022-12-29T01:05:06;1.57;;;0.70;;
21032;SDS011;10675;47.976;7.824;2022-12-29T01:07:31;0.67;;;0.60;;
21032;SDS011;10675;47.976;7.824;2022-12-29T01:09:57;0.50;;;0.50;;
21032;SDS011;10675;47.976;7.824;2022-12-29T01:12:35;1.47;;;0.63;;
21032;SDS011;10675;47.976;7.824;2022-12-29T01:15:07;2.13;;;0.70;;
21032;SDS011;10675;47.976;7.824;2022-12-29T01:17:34;0.63;;;0.60;;
21032;SDS011;10675;47.976;7.824;2022-12-29T01:20:00;1.23;;;0.60;;
21032;SDS011;10675;47.976;7.824;2022-12-29T01:22:26;1.03;;;0.63;;
21032;SDS011;10675;47.976;7.824;2022-12-29T01:24:52;1.10;;;0.63;;
21032;SDS011;10675;47.976;7.824;2022-12-29T01:27:17;0.60;;;0.53;;
21032;SDS011;10675;47.976;7.824;2022-12-29T01:29:42;0.80;;;0.80;;
21032;SDS011;10675;47.976;7.824;2022-12-29T01:32:08;2.93;;;1.00;;
21032;SDS011;10675;47.976;7.824;2022-12-29T01:34:33;1.87;;;0.70;;
21032;SDS011;10675;47.976;7.824;2022-12-29T01:36:59;1.63;;;0.73;;
21032;SDS011;10675;47.976;7.824;2022-12-29T01:39:24;2.77;;;0.70;;
21032;SDS011;10675;47.976;7.824;2022-12-29T01:41:50;1.50;;;0.90;;
21032;SDS011;10675;47.976;7.824;2022-12-29T01:47:13;3.47;;;0.77;;
21032;SDS011;10675;47.976;7.824;2022-12-29T01:49:42;2.53;;;0.90;;
21032;SDS011;10675;47.976;7.824;2022-12-29T01:52:08;2.07;;;0.80;;
21032;SDS011;10675;47.976;7.824;2022-12-29T01:54:39;0.73;;;0.70;;
21032;SDS011;10675;47.976;7.824;2022-12-29T01:57:12;0.77;;;0.60;;
21032;SDS011;10675;47.976;7.824;2022-12-29T01:59:46;2.73;;;0.80;;
21032;SDS011;10675;47.976;7.824;2022-12-29T02:02:18;1.90;;;0.73;;
21032;SDS011;10675;47.976;7.824;2022-12-29T02:04:43;0.87;;;0.87;;
21032;SDS011;10675;47.976;7.824;2022-12-29T02:07:10;1.13;;;0.80;;
21032;SDS011;10675;47.976;7.824;2022-12-29T02:09:43;1.63;;;0.77;;
21032;SDS011;10675;47.976;7.824;2022-12-29T02:12:15;1.03;;;0.70;;
21032;SDS011;10675;47.976;7.824;2022-12-29T02:14:43;0.80;;;0.80;;
21032;SDS011;10675;47.976;7.824;2022-12-29T02:25:38;1.20;;;1.00;;
21032;SDS011;10675;47.976;7.824;2022-12-29T02:29:17;1.90;;;0.90;;
21032;SDS011;10675;47.976;7.824;2022-12-29T02:36:23;0.90;;;0.90;;
21032;SDS011;10675;47.976;7.824;2022-12-29T02:41:37;2.50;;;0.80;;
21032;SDS011;10675;47.976;7.824;2022-12-29T02:44:15;1.03;;;0.80;;
21032;SDS011;10675;47.976;7.824;2022-12-29T02:47:00;1.70;;;1.07;;
21032;SDS011;10675;47.976;7.824;2022-12-29T02:49:30;3.23;;;0.83;;
21032;SDS011;10675;47.976;7.824;2022-12-29T02:52:14;1.33;;;0.90;;
21032;SDS011;10675;47.976;7.824;2022-12-29T02:54:42;0.77;;;0.77;;
21032;SDS011;10675;47.976;7.824;2022-12-29T02:57:10;1.13;;;1.00;;
21032;SDS011;10675;47.976;7.824;2022-12-29T02:59:44;0.87;;;0.83;;
21032;SDS011;10675;47.976;7.824;2022-12-29T03:02:35;1.30;;;1.00;;
21032;SDS011;10675;47.976;7.824;2022-12-29T03:10:41;1.20;;;1.10;;
21032;SDS011;10675;47.976;7.824;2022-12-29T03:13:23;1.10;;;1.00;;
21032;SDS011;10675;47.976;7.824;2022-12-29T03:16:13;0.87;;;0.87;;
21032;SDS011;10675;47.976;7.824;2022-12-29T03:24:32;1.80;;;1.23;;
21032;SDS011;10675;47.976;7.824;2022-12-29T03:27:02;1.10;;;1.00;;
21032;SDS011;10675;47.976;7.824;2022-12-29T03:29:32;1.27;;;1.20;;
21032;SDS011;10675;47.976;7.824;2022-12-29T03:32:00;2.60;;;1.00;;
21032;SDS011;10675;47.976;7.824;2022-12-29T03:34:27;1.53;;;1.03;;
21032;SDS011;10675;47.976;7.824;2022-12-29T03:36:59;1.13;;;1.10;;
21032;SDS011;10675;47.976;7.824;2022-12-29T03:39:29;1.60;;;1.27;;
21032;SDS011;10675;47.976;7.824;2022-12-29T03:42:00;1.23;;;1.13;;
21032;SDS011;10675;47.976;7.824;2022-12-29T03:44:32;1.80;;;1.10;;
21032;SDS011;10675;47.976;7.824;2022-12-29T03:47:06;1.50;;;1.20;;
21032;SDS011;10675;47.976;7.824;2022-12-29T03:49:32;1.93;;;1.37;;
21032;SDS011;10675;47.976;7.824;2022-12-29T03:51:58;1.20;;;1.10;;
21032;SDS011;10675;47.976;7.824;2022-12-29T03:54:23;1.23;;;1.00;;
21032;SDS011;10675;47.976;7.824;2022-12-29T03:56:50;1.57;;;1.20;;
21032;SDS011;10675;47.976;7.824;2022-12-29T03:59:15;2.90;;;1.30;;
21032;SDS011;10675;47.976;7.824;2022-12-29T04:01:41;1.00;;;1.00;;
21032;SDS011;10675;47.976;7.824;2022-12-29T04:04:07;3.50;;;1.33;;
21032;SDS011;10675;47.976;7.824;2022-12-29T04:06:32;1.87;;;1.30;;
21032;SDS011;10675;47.976;7.824;2022-12-29T04:08:58;3.10;;;1.10;;
21032;SDS011;10675;47.976;7.824;2022-12-29T04:11:23;3.40;;;1.20;;
21032;SDS011;10675;47.976;7.824;2022-12-29T04:13:49;2.17;;;1.30;;
21032;SDS011;10675;47.976;7.824;2022-12-29T04:16:14;1.30;;;1.20;;
21032;SDS011;10675;47.976;7.824;2022-12-29T04:18:40;1.30;;;1.20;;
21032;SDS011;10675;47.976;7.824;2022-12-29T04:21:05;2.63;;;1.37;;
21032;SDS011;10675;47.976;7.824;2022-12-29T04:23:33;1.07;;;1.03;;
21032;SDS011;10675;47.976;7.824;2022-12-29T04:26:01;2.40;;;1.10;;
21032;SDS011;10675;47.976;7.824;2022-12-29T04:28:27;1.37;;;1.20;;
21032;SDS011;10675;47.976;7.824;2022-12-29T04:30:53;2.57;;;1.03;;
21032;SDS011;10675;47.976;7.824;2022-12-29T04:33:18;1.17;;;1.17;;
21032;SDS011;10675;47.976;7.824;2022-12-29T04:35:45;1.20;;;1.10;;
21032;SDS011;10675;47.976;7.824;2022-12-29T04:38:11;1.37;;;1.27;;
21032;SDS011;10675;47.976;7.824;2022-12-29T04:40:41;1.30;;;1.20;;
21032;SDS011;10675;47.976;7.824;2022-12-29T04:43:07;1.33;;;0.97;;
21032;SDS011;10675;47.976;7.824;2022-12-29T04:45:33;1.77;;;1.13;;
21032;SDS011;10675;47.976;7.824;2022-12-29T04:47:59;1.00;;;0.93;;
21032;SDS011;10675;47.976;7.824;2022-12-29T04:50:25;1.47;;;1.30;;
21032;SDS011;10675;47.976;7.824;2022-12-29T04:52:50;1.23;;;1.13;;
21032;SDS011;10675;47.976;7.824;2022-12-29T04:55:16;1.77;;;1.20;;
21032;SDS011;10675;47.976;7.824;2022-12-29T04:57:41;1.43;;;1.07;;
21032;SDS011;10675;47.976;7.824;2022-12-29T05:00:07;1.43;;;1.30;;
21032;SDS011;10675;47.976;7.824;2022-12-29T05:02:36;4.03;;;1.40;;
21032;SDS011;10675;47.976;7.824;2022-12-29T05:05:02;2.37;;;0.90;;
21032;SDS011;10675;47.976;7.824;2022-12-29T05:07:29;1.10;;;1.07;;
21032;SDS011;10675;47.976;7.824;2022-12-29T05:09:54;4.83;;;1.00;;
21032;SDS011;10675;47.976;7.824;2022-12-29T05:12:20;1.07;;;0.80;;
21032;SDS011;10675;47.976;7.824;2022-12-29T05:14:45;1.77;;;0.80;;
21032;SDS011;10675;47.976;7.824;2022-12-29T05:17:11;0.90;;;0.90;;
21032;SDS011;10675;47.976;7.824;2022-12-29T05:19:36;0.70;;;0.70;;
21032;SDS011;10675;47.976;7.824;2022-12-29T05:22:03;0.93;;;0.93;;
21032;SDS011;10675;47.976;7.824;2022-12-29T05:24:28;0.90;;;0.80;;
21032;SDS011;10675;47.976;7.824;2022-12-29T05:26:54;0.40;;;0.40;;
21032;SDS011;10675;47.976;7.824;2022-12-29T05:29:20;0.57;;;0.57;;
21032;SDS011;10675;47.976;7.824;2022-12-29T05:31:45;1.27;;;0.80;;
21032;SDS011;10675;47.976;7.824;2022-12-29T05:34:11;0.80;;;0.80;;
21032;SDS011;10675;47.976;7.824;2022-12-29T05:36:36;1.30;;;0.80;;
21032;SDS011;10675;47.976;7.824;2022-12-29T05:39:02;0.70;;;0.70;;
21032;SDS011;10675;47.976;7.824;2022-12-29T05:41:27;0.73;;;0.73;;
21032;SDS011;10675;47.976;7.824;2022-12-29T05:43:53;1.83;;;0.80;;
21032;SDS011;10675;47.976;7.824;2022-12-29T05:46:18;1.80;;;0.70;;
21032;SDS011;10675;47.976;7.824;2022-12-29T05:48:44;0.60;;;0.60;;
21032;SDS011;10675;47.976;7.824;2022-12-29T05:51:09;2.97;;;0.97;;
21032;SDS011;10675;47.976;7.824;2022-12-29T05:53:35;0.53;;;0.53;;
21032;SDS011;10675;47.976;7.824;2022-12-29T05:56:01;2.00;;;0.60;;
21032;SDS011;10675;47.976;7.824;2022-12-29T05:58:26;0.77;;;0.77;;
21032;SDS011;10675;47.976;7.824;2022-12-29T06:00:51;1.23;;;0.97;;
21032;SDS011;10675;47.976;7.824;2022-12-29T06:03:17;0.70;;;0.70;;
21032;SDS011;10675;47.976;7.824;2022-12-29T06:05:44;0.60;;;0.60;;
21032;SDS011;10675;47.976;7.824;2022-12-29T06:08:13;0.70;;;0.70;;
21032;SDS011;10675;47.976;7.824;2022-12-29T06:10:38;0.80;;;0.80;;
21032;SDS011;10675;47.976;7.824;2022-12-29T06:13:04;0.70;;;0.57;;
21032;SDS011;10675;47.976;7.824;2022-12-29T06:15:33;1.23;;;0.70;;
21032;SDS011;10675;47.976;7.824;2022-12-29T06:17:59;0.70;;;0.70;;
21032;SDS011;10675;47.976;7.824;2022-12-29T06:20:24;1.63;;;0.57;;
21032;SDS011;10675;47.976;7.824;2022-12-29T06:22:50;0.90;;;0.67;;
21032;SDS011;10675;47.976;7.824;2022-12-29T06:25:15;1.83;;;0.80;;
21032;SDS011;10675;47.976;7.824;2022-12-29T06:27:41;0.70;;;0.67;;
21032;SDS011;10675;47.976;7.824;2022-12-29T06:30:07;1.00;;;0.77;;
21032;SDS011;10675;47.976;7.824;2022-12-29T06:32:34;1.20;;;0.90;;
21032;SDS011;10675;47.976;7.824;2022-12-29T06:35:00;0.67;;;0.60;;
21032;SDS011;10675;47.976;7.824;2022-12-29T06:37:26;0.80;;;0.80;;
21032;SDS011;10675;47.976;7.824;2022-12-29T06:39:51;1.03;;;0.77;;
21032;SDS011;10675;47.976;7.824;2022-12-29T06:42:17;2.00;;;0.80;;
21032;SDS011;10675;47.976;7.824;2022-12-29T06:44:42;1.07;;;0.97;;
21032;SDS011;10675;47.976;7.824;2022-12-29T06:47:08;1.73;;;0.60;;
21032;SDS011;10675;47.976;7.824;2022-12-29T06:49:33;1.10;;;0.97;;
21032;SDS011;10675;47.976;7.824;2022-12-29T06:51:59;3.10;;;1.00;;
21032;SDS011;10675;47.976;7.824;2022-12-29T06:54:25;2.50;;;0.80;;
21032;SDS011;10675;47.976;7.824;2022-12-29T06:56:51;0.60;;;0.60;;
21032;SDS011;10675;47.976;7.824;2022-12-29T06:59:17;1.87;;;0.70;;
21032;SDS011;10675;47.976;7.824;2022-12-29T07:01:42;0.77;;;0.73;;
21032;SDS011;10675;47.976;7.824;2022-12-29T07:04:08;0.80;;;0.80;;
21032;SDS011;10675;47.976;7.824;2022-12-29T07:06:33;0.73;;;0.60;;
21032;SDS011;10675;47.976;7.824;2022-12-29T07:08:59;2.47;;;0.60;;
21032;SDS011;10675;47.976;7.824;2022-12-29T07:11:24;0.50;;;0.50;;
21032;SDS011;10675;47.976;7.824;2022-12-29T07:13:50;1.97;;;0.70;;
21032;SDS011;10675;47.976;7.824;2022-12-29T07:16:16;0.80;;;0.53;;
21032;SDS011;10675;47.976;7.824;2022-12-29T07:18:41;0.50;;;0.50;;
21032;SDS011;10675;47.976;7.824;2022-12-29T07:21:07;0.60;;;0.60;;
21032;SDS011;10675;47.976;7.824;2022-12-29T07:23:32;2.67;;;0.90;;
21032;SDS011;10675;47.976;7.824;2022-12-29T07:25:59;0.60;;;0.60;;
21032;SDS011;10675;47.976;7.824;2022-12-29T07:28:25;0.97;;;0.67;;
21032;SDS011;10675;47.976;7.824;2022-12-29T07:30:51;4.07;;;1.20;;
21032;SDS011;10675;47.976;7.824;2022-12-29T07:33:16;1.00;;;0.90;;
21032;SDS011;10675;47.976;7.824;2022-12-29T07:35:42;0.70;;;0.70;;
21032;SDS011;10675;47.976;7.824;2022-12-29T07:38:07;0.77;;;0.77;;
21032;SDS011;10675;47.976;7.824;2022-12-29T07:40:32;0.50;;;0.47;;
21032;SDS011;10675;47.976;7.824;2022-12-29T07:42:58;0.77;;;0.53;;
21032;SDS011;10675;47.976;7.824;2022-12-29T07:45:24;1.20;;;0.70;;
21032;SDS011;10675;47.976;7.824;2022-12-29T07:47:49;4.13;;;0.70;;
21032;SDS011;10675;47.976;7.824;2022-12-29T07:50:15;0.57;;;0.50;;
21032;SDS011;10675;47.976;7.824;2022-12-29T07:52:41;2.13;;;0.63;;
21032;SDS011;10675;47.976;7.824;2022-12-29T07:55:06;0.93;;;0.90;;
21032;SDS011;10675;47.976;7.824;2022-12-29T07:57:32;0.43;;;0.33;;
21032;SDS011;10675;47.976;7.824;2022-12-29T07:59:58;1.80;;;1.00;;
21032;SDS011;10675;47.976;7.824;2022-12-29T08:02:23;0.63;;;0.63;;
21032;SDS011;10675;47.976;7.824;2022-12-29T08:04:51;1.03;;;0.90;;
21032;SDS011;10675;47.976;7.824;2022-12-29T08:07:16;1.53;;;0.90;;
21032;SDS011;10675;47.976;7.824;2022-12-29T08:09:42;1.80;;;0.90;;
21032;SDS011;10675;47.976;7.824;2022-12-29T08:12:08;1.20;;;0.63;;
21032;SDS011;10675;47.976;7.824;2022-12-29T08:14:35;0.70;;;0.70;;
21032;SDS011;10675;47.976;7.824;2022-12-29T08:17:00;1.07;;;0.80;;
21032;SDS011;10675;47.976;7.824;2022-12-29T08:19:26;1.90;;;0.70;;
21032;SDS011;10675;47.976;7.824;2022-12-29T08:21:52;0.90;;;0.90;;
21032;SDS011;10675;47.976;7.824;2022-12-29T08:24:18;1.13;;;0.70;;
21032;SDS011;10675;47.976;7.824;2022-12-29T08:26:44;0.70;;;0.70;;
21032;SDS011;10675;47.976;7.824;2022-12-29T08:29:09;1.07;;;0.67;;
21032;SDS011;10675;47.976;7.824;2022-12-29T08:31:35;0.93;;;0.80;;
21032;SDS011;10675;47.976;7.824;2022-12-29T08:34:01;2.27;;;0.83;;
21032;SDS011;10675;47.976;7.824;2022-12-29T08:36:28;1.70;;;0.77;;
21032;SDS011;10675;47.976;7.824;2022-12-29T08:38:54;0.97;;;0.60;;
21032;SDS011;10675;47.976;7.824;2022-12-29T08:41:20;0.80;;;0.80;;
21032;SDS011;10675;47.976;7.824;2022-12-29T08:43:46;0.73;;;0.67;;
21032;SDS011;10675;47.976;7.824;2022-12-29T08:46:12;1.17;;;0.73;;
21032;SDS011;10675;47.976;7.824;2022-12-29T08:48:38;0.80;;;0.63;;
21032;SDS011;10675;47.976;7.824;2022-12-29T08:51:04;1.10;;;0.77;;
21032;SDS011;10675;47.976;7.824;2022-12-29T08:53:29;0.93;;;0.60;;
21032;SDS011;10675;47.976;7.824;2022-12-29T08:55:56;1.23;;;1.00;;
21032;SDS011;10675;47.976;7.824;2022-12-29T08:58:23;0.73;;;0.73;;
21032;SDS011;10675;47.976;7.824;2022-12-29T09:00:51;0.80;;;0.80;;
21032;SDS011;10675;47.976;7.824;2022-12-29T09:03:18;2.83;;;0.93;;
21032;SDS011;10675;47.976;7.824;2022-12-29T09:05:47;0.97;;;0.77;;
21032;SDS011;10675;47.976;7.824;2022-12-29T09:08:14;1.60;;;0.90;;
21032;SDS011;10675;47.976;7.824;2022-12-29T09:10:39;0.80;;;0.80;;
21032;SDS011;10675;47.976;7.824;2022-12-29T09:13:05;0.90;;;0.90;;
21032;SDS011;10675;47.976;7.824;2022-12-29T09:15:30;4.03;;;0.80;;
21032;SDS011;10675;47.976;7.824;2022-12-29T09:17:56;2.07;;;0.73;;
21032;SDS011;10675;47.976;7.824;2022-12-29T09:20:21;0.77;;;0.77;;
21032;SDS011;10675;47.976;7.824;2022-12-29T09:22:47;0.83;;;0.70;;
21032;SDS011;10675;47.976;7.824;2022-12-29T09:25:13;0.70;;;0.70;;
21032;SDS011;10675;47.976;7.824;2022-12-29T09:27:39;0.93;;;0.87;;
21032;SDS011;10675;47.976;7.824;2022-12-29T09:30:06;0.93;;;0.80;;
21032;SDS011;10675;47.976;7.824;2022-12-29T09:32:33;1.67;;;0.73;;
21032;SDS011;10675;47.976;7.824;2022-12-29T09:34:59;0.87;;;0.80;;
21032;SDS011;10675;47.976;7.824;2022-12-29T09:37:24;2.23;;;1.10;;
21032;SDS011;10675;47.976;7.824;2022-12-29T09:39:50;0.70;;;0.70;;
21032;SDS011;10675;47.976;7.824;2022-12-29T09:42:21;3.33;;;1.07;;
21032;SDS011;10675;47.976;7.824;2022-12-29T09:47:21;1.70;;;0.90;;
21032;SDS011;10675;47.976;7.824;2022-12-29T09:49:56;1.33;;;0.80;;
21032;SDS011;10675;47.976;7.824;2022-12-29T09:52:26;1.03;;;0.80;;
21032;SDS011;10675;47.976;7.824;2022-12-29T09:55:13;1.63;;;1.00;;
21032;SDS011;10675;47.976;7.824;2022-12-29T09:57:58;1.20;;;1.10;;
21032;SDS011;10675;47.976;7.824;2022-12-29T10:00:50;1.37;;;0.90;;
21032;SDS011;10675;47.976;7.824;2022-12-29T10:03:26;1.10;;;1.00;;
21032;SDS011;10675;47.976;7.824;2022-12-29T10:06:08;0.77;;;0.77;;
21032;SDS011;10675;47.976;7.824;2022-12-29T10:08:48;1.90;;;1.10;;
21032;SDS011;10675;47.976;7.824;2022-12-29T10:16:43;0.93;;;0.87;;
21032;SDS011;10675;47.976;7.824;2022-12-29T10:19:32;1.40;;;0.80;;
21032;SDS011;10675;47.976;7.824;2022-12-29T10:24:48;3.33;;;1.20;;
21032;SDS011;10675;47.976;7.824;2022-12-29T10:27:16;1.53;;;1.20;;
21032;SDS011;10675;47.976;7.824;2022-12-29T10:29:50;1.20;;;1.10;;
21032;SDS011;10675;47.976;7.824;2022-12-29T10:35:11;1.97;;;1.00;;
21032;SDS011;10675;47.976;7.824;2022-12-29T10:37:50;2.17;;;1.03;;
21032;SDS011;10675;47.976;7.824;2022-12-29T10:40:38;1.97;;;1.13;;
21032;SDS011;10675;47.976;7.824;2022-12-29T10:43:27;3.73;;;1.03;;
21032;SDS011;10675;47.976;7.824;2022-12-29T10:45:55;1.10;;;1.00;;
21032;SDS011;10675;47.976;7.824;2022-12-29T10:48:32;1.80;;;1.30;;
21032;SDS011;10675;47.976;7.824;2022-12-29T10:50:59;2.50;;;1.20;;
21032;SDS011;10675;47.976;7.824;2022-12-29T10:53:42;3.23;;;1.27;;
21032;SDS011;10675;47.976;7.824;2022-12-29T10:56:14;1.30;;;1.00;;
21032;SDS011;10675;47.976;7.824;2022-12-29T10:59:01;1.60;;;1.10;;
21032;SDS011;10675;47.976;7.824;2022-12-29T11:02:00;1.63;;;1.03;;
21032;SDS011;10675;47.976;7.824;2022-12-29T11:07:32;1.63;;;0.80;;
21032;SDS011;10675;47.976;7.824;2022-12-29T11:15:26;1.47;;;0.93;;
21032;SDS011;10675;47.976;7.824;2022-12-29T11:17:53;1.10;;;1.00;;
21032;SDS011;10675;47.976;7.824;2022-12-29T11:22:56;5.23;;;2.13;;
21032;SDS011;10675;47.976;7.824;2022-12-29T11:25:22;4.17;;;2.27;;
21032;SDS011;10675;47.976;7.824;2022-12-29T11:28:14;2.73;;;1.27;;
21032;SDS011;10675;47.976;7.824;2022-12-29T11:30:41;3.67;;;1.10;;
21032;SDS011;10675;47.976;7.824;2022-12-29T11:33:07;1.67;;;0.80;;
21032;SDS011;10675;47.976;7.824;2022-12-29T11:35:39;1.97;;;0.80;;
21032;SDS011;10675;47.976;7.824;2022-12-29T11:38:16;1.00;;;0.90;;
21032;SDS011;10675;47.976;7.824;2022-12-29T11:40:45;1.13;;;0.50;;
21032;SDS011;10675;47.976;7.824;2022-12-29T11:43:18;2.23;;;0.93;;
21032;SDS011;10675;47.976;7.824;2022-12-29T11:46:07;0.63;;;0.63;;
21032;SDS011;10675;47.976;7.824;2022-12-29T11:49:04;2.63;;;0.90;;
21032;SDS011;10675;47.976;7.824;2022-12-29T11:51:43;0.83;;;0.60;;
21032;SDS011;10675;47.976;7.824;2022-12-29T11:54:16;1.17;;;1.00;;
21032;SDS011;10675;47.976;7.824;2022-12-29T11:56:49;1.27;;;0.93;;
21032;SDS011;10675;47.976;7.824;2022-12-29T12:04:51;1.03;;;0.87;;
21032;SDS011;10675;47.976;7.824;2022-12-29T12:07:42;1.80;;;1.00;;
21032;SDS011;10675;47.976;7.824;2022-12-29T12:10:18;0.73;;;0.73;;
21032;SDS011;10675;47.976;7.824;2022-12-29T12:15:28;3.43;;;0.73;;
21032;SDS011;10675;47.976;7.824;2022-12-29T12:21:12;0.97;;;0.87;;
21032;SDS011;10675;47.976;7.824;2022-12-29T12:24:02;0.60;;;0.60;;
21032;SDS011;10675;47.976;7.824;2022-12-29T12:29:37;1.03;;;0.90;;
21032;SDS011;10675;47.976;7.824;2022-12-29T12:32:10;1.03;;;0.83;;
21032;SDS011;10675;47.976;7.824;2022-12-29T12:34:42;0.67;;;0.67;;
21032;SDS011;10675;47.976;7.824;2022-12-29T12:37:19;1.37;;;0.77;;
21032;SDS011;10675;47.976;7.824;2022-12-29T12:50:59;0.93;;;0.87;;
21032;SDS011;10675;47.976;7.824;2022-12-29T12:53:50;1.10;;;1.00;;
21032;SDS011;10675;47.976;7.824;2022-12-29T12:56:42;2.30;;;1.23;;
21032;SDS011;10675;47.976;7.824;2022-12-29T13:08:00;1.00;;;0.73;;
21032;SDS011;10675;47.976;7.824;2022-12-29T13:10:55;0.93;;;0.90;;
21032;SDS011;10675;47.976;7.824;2022-12-29T13:25:01;1.17;;;0.90;;
21032;SDS011;10675;47.976;7.824;2022-12-29T13:27:54;2.27;;;1.03;;
21032;SDS011;10675;47.976;7.824;2022-12-29T13:33:46;1.23;;;0.90;;
21032;SDS011;10675;47.976;7.824;2022-12-29T13:36:27;1.30;;;1.20;;
21032;SDS011;10675;47.976;7.824;2022-12-29T13:39:10;1.87;;;0.93;;
21032;SDS011;10675;47.976;7.824;2022-12-29T13:41:44;0.87;;;0.87;;
21032;SDS011;10675;47.976;7.824;2022-12-29T13:44:17;0.90;;;0.90;;
21032;SDS011;10675;47.976;7.824;2022-12-29T13:46:47;1.00;;;1.00;;
21032;SDS011;10675;47.976;7.824;2022-12-29T13:49:16;2.83;;;1.13;;
21032;SDS011;10675;47.976;7.824;2022-12-29T13:51:47;2.83;;;1.10;;
21032;SDS011;10675;47.976;7.824;2022-12-29T13:54:22;1.10;;;1.00;;
21032;SDS011;10675;47.976;7.824;2022-12-29T13:57:20;6.60;;;1.30;;
21032;SDS011;10675;47.976;7.824;2022-12-29T14:00:16;4.50;;;1.20;;
21032;SDS011;10675;47.976;7.824;2022-12-29T14:07:48;3.67;;;1.17;;
21032;SDS011;10675;47.976;7.824;2022-12-29T14:10:28;2.93;;;0.90;;
21032;SDS011;10675;47.976;7.824;2022-12-29T14:15:45;4.87;;;1.40;;
21032;SDS011;10675;47.976;7.824;2022-12-29T14:18:21;1.23;;;1.10;;
21032;SDS011;10675;47.976;7.824;2022-12-29T14:20:56;2.27;;;1.60;;
21032;SDS011;10675;47.976;7.824;2022-12-29T14:28:31;1.43;;;0.90;;
21032;SDS011;10675;47.976;7.824;2022-12-29T14:30:59;1.87;;;1.20;;
21032;SDS011;10675;47.976;7.824;2022-12-29T14:33:27;1.00;;;0.90;;
21032;SDS011;10675;47.976;7.824;2022-12-29T14:35:55;4.30;;;1.23;;
21032;SDS011;10675;47.976;7.824;2022-12-29T14:38:22;1.30;;;1.20;;
21032;SDS011;10675;47.976;7.824;2022-12-29T14:40:50;1.63;;;1.33;;
21032;SDS011;10675;47.976;7.824;2022-12-29T14:43:20;2.50;;;1.30;;
21032;SDS011;10675;47.976;7.824;2022-12-29T14:45:52;1.93;;;0.97;;
21032;SDS011;10675;47.976;7.824;2022-12-29T14:48:34;3.03;;;1.17;;
21032;SDS011;10675;47.976;7.824;2022-12-29T14:51:00;1.10;;;0.90;;
21032;SDS011;10675;47.976;7.824;2022-12-29T14:53:49;1.47;;;1.30;;
21032;SDS011;10675;47.976;7.824;2022-12-29T14:56:16;2.13;;;0.80;;
21032;SDS011;10675;47.976;7.824;2022-12-29T14:58:55;3.53;;;1.10;;
21032;SDS011;10675;47.976;7.824;2022-12-29T15:01:23;2.13;;;1.17;;
21032;SDS011;10675;47.976;7.824;2022-12-29T15:03:50;1.23;;;1.13;;
21032;SDS011;10675;47.976;7.824;2022-12-29T15:06:22;2.83;;;1.20;;
21032;SDS011;10675;47.976;7.824;2022-12-29T15:09:00;1.47;;;1.07;;
21032;SDS011;10675;47.976;7.824;2022-12-29T15:14:01;1.37;;;0.90;;
21032;SDS011;10675;47.976;7.824;2022-12-29T15:16:31;1.03;;;0.90;;
21032;SDS011;10675;47.976;7.824;2022-12-29T15:18:58;1.40;;;1.07;;
21032;SDS011;10675;47.976;7.824;2022-12-29T15:21:29;1.37;;;1.10;;
21032;SDS011;10675;47.976;7.824;2022-12-29T15:23:57;1.50;;;1.00;;
21032;SDS011;10675;47.976;7.824;2022-12-29T15:26:23;0.97;;;0.90;;
21032;SDS011;10675;47.976;7.824;2022-12-29T15:29:00;1.10;;;1.00;;
21032;SDS011;10675;47.976;7.824;2022-12-29T15:31:26;1.23;;;1.13;;
21032;SDS011;10675;47.976;7.824;2022-12-29T15:33:53;1.37;;;1.10;;
21032;SDS011;10675;47.976;7.824;2022-12-29T15:36:21;1.23;;;1.13;;
21032;SDS011;10675;47.976;7.824;2022-12-29T15:38:48;2.33;;;1.20;;
21032;SDS011;10675;47.976;7.824;2022-12-29T15:41:19;2.30;;;1.20;;
21032;SDS011;10675;47.976;7.824;2022-12-29T15:43:53;1.20;;;1.10;;
21032;SDS011;10675;47.976;7.824;2022-12-29T15:46:37;2.07;;;1.00;;
21032;SDS011;10675;47.976;7.824;2022-12-29T15:49:08;0.97;;;0.97;;
21032;SDS011;10675;47.976;7.824;2022-12-29T15:51:38;2.43;;;0.90;;
21032;SDS011;10675;47.976;7.824;2022-12-29T15:54:05;1.33;;;1.20;;
21032;SDS011;10675;47.976;7.824;2022-12-29T15:56:37;1.27;;;1.13;;
21032;SDS011;10675;47.976;7.824;2022-12-29T15:59:02;1.27;;;0.80;;
21032;SDS011;10675;47.976;7.824;2022-12-29T16:01:32;2.83;;;1.00;;
21032;SDS011;10675;47.976;7.824;2022-12-29T16:04:00;2.30;;;1.03;;
21032;SDS011;10675;47.976;7.824;2022-12-29T16:06:33;1.10;;;1.00;;
21032;SDS011;10675;47.976;7.824;2022-12-29T16:09:04;1.73;;;1.30;;
21032;SDS011;10675;47.976;7.824;2022-12-29T16:11:34;1.77;;;1.40;;
21032;SDS011;10675;47.976;7.824;2022-12-29T16:14:02;3.13;;;1.20;;
21032;SDS011;10675;47.976;7.824;2022-12-29T16:16:36;2.57;;;1.50;;
21032;SDS011;10675;47.976;7.824;2022-12-29T16:19:10;2.47;;;1.60;;
21032;SDS011;10675;47.976;7.824;2022-12-29T16:21:52;1.50;;;1.40;;
21032;SDS011;10675;47.976;7.824;2022-12-29T16:24:19;2.63;;;1.37;;
21032;SDS011;10675;47.976;7.824;2022-12-29T16:26:51;4.47;;;1.40;;
21032;SDS011;10675;47.976;7.824;2022-12-29T16:29:39;1.87;;;1.40;;
21032;SDS011;10675;47.976;7.824;2022-12-29T16:32:21;1.20;;;1.10;;
21032;SDS011;10675;47.976;7.824;2022-12-29T16:34:50;1.97;;;1.20;;
21032;SDS011;10675;47.976;7.824;2022-12-29T16:37:31;1.60;;;1.13;;
21032;SDS011;10675;47.976;7.824;2022-12-29T16:45:28;2.27;;;1.00;;
21032;SDS011;10675;47.976;7.824;2022-12-29T16:48:30;1.43;;;1.33;;
21032;SDS011;10675;47.976;7.824;2022-12-29T16:51:04;3.10;;;1.33;;
21032;SDS011;10675;47.976;7.824;2022-12-29T16:53:32;1.10;;;1.03;;
21032;SDS011;10675;47.976;7.824;2022-12-29T16:56:18;2.77;;;0.90;;
21032;SDS011;10675;47.976;7.824;2022-12-29T16:58:46;1.37;;;0.97;;
21032;SDS011;10675;47.976;7.824;2022-12-29T17:01:13;2.57;;;0.70;;
21032;SDS011;10675;47.976;7.824;2022-12-29T17:03:45;1.13;;;1.00;;
21032;SDS011;10675;47.976;7.824;2022-12-29T17:06:18;0.83;;;0.80;;
21032;SDS011;10675;47.976;7.824;2022-12-29T17:08:46;0.93;;;0.93;;
21032;SDS011;10675;47.976;7.824;2022-12-29T17:11:33;2.43;;;1.10;;
21032;SDS011;10675;47.976;7.824;2022-12-29T17:14:26;1.20;;;1.03;;